createdAt,value
2022-12-25T00:01:20.530Z,98791.97
2022-12-25T00:03:26.492Z,98797.69
2022-12-25T00:05:31.527Z,98790.06
2022-12-25T00:07:37.198Z,98790.81
2022-12-25T00:09:42.199Z,98784.13
2022-12-25T00:11:50.069Z,98783.28
2022-12-25T00:13:55.343Z,98783.41
2022-12-25T00:16:00.535Z,98786.03
2022-12-25T00:18:06.998Z,98785.25
2022-12-25T00:20:13.402Z,98785.25
2022-12-25T00:22:18.604Z,98773.50
2022-12-25T00:24:24.299Z,98773.44
2022-12-25T00:26:30.916Z,98771.72
2022-12-25T00:28:39.574Z,98770.00
2022-12-25T00:30:44.469Z,98772.50
2022-12-25T00:32:50.317Z,98770.06
2022-12-25T00:34:55.278Z,98769.16
2022-12-25T00:37:00.242Z,98750.66
2022-12-25T00:39:07.409Z,98746.34
2022-12-25T00:41:15.571Z,98742.09
2022-12-25T00:43:18.315Z,98742.94
2022-12-25T00:45:26.160Z,98747.97
2022-12-25T00:47:32.132Z,98758.81
2022-12-25T00:49:37.146Z,98767.94
2022-12-25T00:51:42.380Z,98776.22
2022-12-25T00:53:47.316Z,98771.91
2022-12-25T00:55:57.598Z,98779.34
2022-12-25T00:58:02.686Z,98779.34
2022-12-25T01:00:09.580Z,98777.81
2022-12-25T01:02:26.204Z,98780.44
2022-12-25T01:04:31.718Z,98797.16
2022-12-25T01:06:36.761Z,98791.41
2022-12-25T01:09:05.066Z,98788.91
2022-12-25T01:11:09.615Z,98790.53
2022-12-25T01:13:14.508Z,98793.00
2022-12-25T01:17:30.626Z,98799.69
2022-12-25T01:19:35.866Z,98798.03
2022-12-25T01:21:41.607Z,98792.97
2022-12-25T01:23:47.275Z,98797.19
2022-12-25T01:25:52.570Z,98803.16
2022-12-25T01:27:57.980Z,98803.97
2022-12-25T01:30:02.917Z,98803.09
2022-12-25T01:32:10.400Z,98818.06
2022-12-25T01:34:18.287Z,98816.44
2022-12-25T01:36:26.769Z,98814.00
2022-12-25T01:38:31.758Z,98823.97
2022-12-25T01:40:37.701Z,98815.63
2022-12-25T01:42:43.556Z,98810.56
2022-12-25T01:45:41.977Z,98817.16
2022-12-25T01:47:44.491Z,98814.72
2022-12-25T01:49:53.632Z,98808.94
2022-12-25T01:52:03.587Z,98816.44
2022-12-25T01:54:14.730Z,98821.50
2022-12-25T01:56:19.767Z,98824.84
2022-12-25T01:58:24.960Z,98820.69
2022-12-25T02:00:29.877Z,98812.28
2022-12-25T02:02:35.706Z,98803.03
2022-12-25T02:04:48.921Z,98801.13
2022-12-25T02:06:56.759Z,98805.94
2022-12-25T02:09:02.576Z,98804.19
2022-12-25T02:11:07.748Z,98801.63
2022-12-25T02:13:13.812Z,98793.16
2022-12-25T02:15:23.332Z,98798.97
2022-12-25T02:17:33.157Z,98803.97
2022-12-25T02:20:22.148Z,98805.84
2022-12-25T02:22:42.132Z,98802.59
2022-12-25T02:25:08.312Z,98798.47
2022-12-25T02:27:27.007Z,98802.72
2022-12-25T02:29:45.224Z,98806.84
2022-12-25T02:32:01.836Z,98794.31
2022-12-25T02:34:12.091Z,98794.13
2022-12-25T02:36:25.219Z,98788.84
2022-12-25T02:38:39.001Z,98788.75
2022-12-25T02:40:49.629Z,98783.66
2022-12-25T02:43:13.296Z,98781.22
2022-12-25T02:45:39.044Z,98774.69
2022-12-25T02:48:02.255Z,98766.34
2022-12-25T02:50:23.260Z,98767.13
2022-12-25T02:52:44.564Z,98768.75
2022-12-25T02:55:07.918Z,98756.94
2022-12-25T02:57:29.589Z,98762.78
2022-12-25T02:59:51.862Z,98771.97
2022-12-25T03:02:12.762Z,98774.59
2022-12-25T03:04:35.533Z,98773.03
2022-12-25T03:06:46.666Z,98778.94
2022-12-25T03:09:17.412Z,98768.91
2022-12-25T03:11:32.356Z,98768.91
2022-12-25T03:13:43.880Z,98773.94
2022-12-25T03:16:03.211Z,98775.66
2022-12-25T03:18:14.209Z,98774.00
2022-12-25T03:20:32.258Z,98770.66
2022-12-25T03:22:50.626Z,98774.06
2022-12-25T03:25:08.085Z,98779.16
2022-12-25T03:27:13.711Z,98784.16
2022-12-25T03:29:38.953Z,98784.94
2022-12-25T03:31:51.568Z,98769.13
2022-12-25T03:34:28.698Z,98781.69
2022-12-25T03:36:49.789Z,98784.19
2022-12-25T03:39:24.767Z,98779.16
2022-12-25T03:41:53.353Z,98772.41
2022-12-25T03:44:18.466Z,98773.19
2022-12-25T03:46:39.683Z,98773.09
2022-12-25T03:49:01.576Z,98780.56
2022-12-25T03:51:27.436Z,98782.97
2022-12-25T03:53:51.531Z,98793.84
2022-12-25T03:56:10.663Z,98778.03
2022-12-25T03:58:33.635Z,98773.16
2022-12-25T04:00:51.423Z,98776.59
2022-12-25T04:03:09.004Z,98773.94
2022-12-25T04:05:26.472Z,98763.84
2022-12-25T04:07:46.839Z,98767.16
2022-12-25T04:10:04.238Z,98767.19
2022-12-25T04:12:22.497Z,98773.03
2022-12-25T04:14:40.462Z,98774.06
2022-12-25T04:16:58.738Z,98780.81
2022-12-25T04:19:16.509Z,98770.81
2022-12-25T04:21:33.919Z,98775.81
2022-12-25T04:23:54.202Z,98767.47
2022-12-25T04:26:13.851Z,98764.19
2022-12-25T04:28:31.569Z,98764.19
2022-12-25T04:30:49.101Z,98760.78
2022-12-25T04:33:11.725Z,98762.38
2022-12-25T04:35:29.650Z,98769.03
2022-12-25T04:37:34.546Z,98774.06
2022-12-25T04:39:42.345Z,98762.41
2022-12-25T04:41:47.274Z,98759.03
2022-12-25T04:43:52.220Z,98753.94
2022-12-25T04:45:59.995Z,98750.50
2022-12-25T04:48:04.970Z,98746.28
2022-12-25T04:50:11.933Z,98741.97
2022-12-25T04:52:16.834Z,98740.22
2022-12-25T04:54:21.742Z,98737.69
2022-12-25T04:56:29.239Z,98740.03
2022-12-25T04:58:32.610Z,98733.31
2022-12-25T05:00:38.359Z,98737.50
2022-12-25T05:02:43.516Z,98730.03
2022-12-25T05:04:50.001Z,98727.53
2022-12-25T05:06:54.935Z,98728.34
2022-12-25T05:09:00.175Z,98736.66
2022-12-25T05:11:09.988Z,98746.69
2022-12-25T05:13:17.745Z,98753.53
2022-12-25T05:15:23.498Z,98746.97
2022-12-25T05:17:28.396Z,98751.16
2022-12-25T05:19:33.710Z,98738.72
2022-12-25T05:21:38.787Z,98741.28
2022-12-25T05:23:48.701Z,98747.06
2022-12-25T05:25:54.606Z,98745.31
2022-12-25T05:27:59.571Z,98746.84
2022-12-25T05:30:08.397Z,98744.22
2022-12-25T05:32:13.716Z,98748.41
2022-12-25T05:34:18.603Z,98743.31
2022-12-25T05:36:24.023Z,98744.00
2022-12-25T05:38:28.977Z,98748.13
2022-12-25T05:40:34.412Z,98734.75
2022-12-25T05:42:39.320Z,98738.91
2022-12-25T05:44:45.167Z,98743.09
2022-12-25T05:46:53.065Z,98746.34
2022-12-25T05:48:58.381Z,98743.03
2022-12-25T05:51:08.657Z,98741.31
2022-12-25T05:53:16.987Z,98733.78
2022-12-25T05:55:21.912Z,98737.13
2022-12-25T05:57:27.619Z,98735.53
2022-12-25T05:59:33.261Z,98741.41
2022-12-25T06:01:38.995Z,98741.41
2022-12-25T06:03:46.910Z,98739.75
2022-12-25T06:05:52.496Z,98753.19
2022-12-25T06:07:58.147Z,98748.16
2022-12-25T06:10:03.055Z,98744.84
2022-12-25T06:12:09.385Z,98744.91
2022-12-25T06:14:18.617Z,98736.56
2022-12-25T06:16:23.988Z,98733.28
2022-12-25T06:18:29.235Z,98727.34
2022-12-25T06:20:37.680Z,98735.81
2022-12-25T06:22:42.570Z,98735.81
2022-12-25T06:24:48.063Z,98741.69
2022-12-25T06:26:53.838Z,98753.50
2022-12-25T06:28:58.975Z,98758.50
2022-12-25T06:31:09.870Z,98745.09
2022-12-25T06:33:15.150Z,98736.78
2022-12-25T06:35:20.236Z,98728.47
2022-12-25T06:37:28.256Z,98720.25
2022-12-25T06:39:33.334Z,98717.81
2022-12-25T06:41:39.290Z,98706.19
2022-12-25T06:43:44.508Z,98707.09
2022-12-25T06:45:51.636Z,98710.50
2022-12-25T06:47:56.582Z,98718.06
2022-12-25T06:50:01.868Z,98721.44
2022-12-25T06:52:06.965Z,98718.97
2022-12-25T06:54:14.618Z,98719.09
2022-12-25T06:56:24.305Z,98711.53
2022-12-25T06:58:29.279Z,98700.81
2022-12-25T07:00:34.640Z,98699.22
2022-12-25T07:02:40.415Z,98705.97
2022-12-25T07:04:45.778Z,98719.38
2022-12-25T07:06:51.028Z,98715.34
2022-12-25T07:08:56.459Z,98712.13
2022-12-25T07:11:04.043Z,98705.53
2022-12-25T07:13:09.313Z,98721.50
2022-12-25T07:15:14.535Z,98727.28
2022-12-25T07:17:19.613Z,98719.78
2022-12-25T07:19:25.171Z,98723.13
2022-12-25T07:21:30.434Z,98716.50
2022-12-25T07:23:36.028Z,98714.00
2022-12-25T07:25:41.282Z,98718.25
2022-12-25T07:27:48.808Z,98723.31
2022-12-25T07:29:53.871Z,98721.63
2022-12-25T07:31:58.899Z,98725.75
2022-12-25T07:34:04.237Z,98732.41
2022-12-25T07:36:12.477Z,98731.53
2022-12-25T07:38:18.650Z,98731.66
2022-12-25T07:40:23.623Z,98737.34
2022-12-25T07:42:28.858Z,98731.56
2022-12-25T07:44:36.401Z,98741.41
2022-12-25T07:46:41.501Z,98730.53
2022-12-25T07:48:46.950Z,98715.22
2022-12-25T07:50:52.459Z,98709.22
2022-12-25T07:52:59.457Z,98714.16
2022-12-25T07:55:04.647Z,98705.69
2022-12-25T07:57:11.497Z,98707.28
2022-12-25T07:59:16.669Z,98703.91
2022-12-25T08:01:28.045Z,98703.84
2022-12-25T08:03:34.064Z,98712.16
2022-12-25T08:05:39.204Z,98702.13
2022-12-25T08:07:44.913Z,98697.03
2022-12-25T08:09:49.897Z,98702.69
2022-12-25T08:11:55.217Z,98690.81
2022-12-25T08:14:00.659Z,98695.59
2022-12-25T08:16:10.223Z,98690.34
2022-12-25T08:18:17.919Z,98686.88
2022-12-25T08:20:22.908Z,98687.56
2022-12-25T08:22:27.836Z,98690.78
2022-12-25T08:24:33.925Z,98687.25
2022-12-25T08:26:38.848Z,98698.75
2022-12-25T08:28:44.067Z,98695.97
2022-12-25T08:30:49.442Z,98684.84
2022-12-25T08:32:54.941Z,98698.66
2022-12-25T08:35:02.571Z,98701.84
2022-12-25T08:37:07.641Z,98704.94
2022-12-25T08:39:12.934Z,98707.25
2022-12-25T08:41:19.783Z,98707.13
2022-12-25T08:43:24.734Z,98696.13
2022-12-25T08:45:34.759Z,98698.56
2022-12-25T08:47:40.252Z,98705.16
2022-12-25T08:49:45.536Z,98713.66
2022-12-25T08:51:53.642Z,98711.13
2022-12-25T08:54:03.024Z,98710.41
2022-12-25T08:56:08.923Z,98708.09
2022-12-25T08:58:15.081Z,98708.97
2022-12-25T09:00:21.760Z,98708.91
2022-12-25T09:02:26.925Z,98707.34
2022-12-25T09:04:32.118Z,98703.19
2022-12-25T09:06:37.986Z,98699.06
2022-12-25T09:08:49.697Z,98694.03
2022-12-25T09:10:55.225Z,98690.53
2022-12-25T09:13:00.128Z,98682.75
2022-12-25T09:15:05.863Z,98670.91
2022-12-25T09:17:11.112Z,98674.97
2022-12-25T09:19:15.997Z,98665.50
2022-12-25T09:21:22.089Z,98671.19
2022-12-25T09:23:27.686Z,98670.69
2022-12-25T09:25:35.217Z,98674.47
2022-12-25T09:27:40.130Z,98671.44
2022-12-25T09:29:45.298Z,98658.16
2022-12-25T09:31:50.212Z,98658.56
2022-12-25T09:33:58.428Z,98661.50
2022-12-25T09:36:06.056Z,98658.03
2022-12-25T09:38:11.314Z,98654.47
2022-12-25T09:40:21.504Z,98656.75
2022-12-25T09:42:34.994Z,98644.00
2022-12-25T09:44:45.480Z,98642.47
2022-12-25T09:46:56.844Z,98642.38
2022-12-25T09:49:09.776Z,98642.16
2022-12-25T09:51:19.216Z,98644.44
2022-12-25T09:53:27.726Z,98643.31
2022-12-25T09:55:38.375Z,98640.72
2022-12-25T09:57:45.867Z,98644.69
2022-12-25T09:59:50.922Z,98649.84
2022-12-25T10:02:13.014Z,98650.47
2022-12-25T10:04:40.845Z,98641.25
2022-12-25T10:07:00.180Z,98630.31
2022-12-25T10:09:32.331Z,98636.66
2022-12-25T10:11:56.394Z,98639.63
2022-12-25T10:14:19.828Z,98639.94
2022-12-25T10:16:35.063Z,98642.81
2022-12-25T10:19:08.145Z,98647.22
2022-12-25T10:21:18.539Z,98649.13
2022-12-25T10:23:30.673Z,98645.09
2022-12-25T10:25:36.090Z,98644.34
2022-12-25T10:27:44.472Z,98632.00
2022-12-25T10:29:57.078Z,98632.91
2022-12-25T10:32:02.266Z,98633.13
2022-12-25T10:34:08.955Z,98638.94
2022-12-25T10:36:14.439Z,98643.97
2022-12-25T10:38:23.555Z,98640.06
2022-12-25T10:40:39.533Z,98644.31
2022-12-25T10:42:48.957Z,98631.00
2022-12-25T10:45:02.210Z,98632.53
2022-12-25T10:47:08.643Z,98620.53
2022-12-25T10:49:19.458Z,98595.38
2022-12-25T10:51:34.118Z,98595.19
2022-12-25T10:53:44.328Z,98588.22
2022-12-25T10:55:58.947Z,98572.31
2022-12-25T10:58:04.566Z,98569.66
2022-12-25T11:00:24.730Z,98574.69
2022-12-25T11:02:32.158Z,98567.91
2022-12-25T11:04:38.541Z,98569.66
2022-12-25T11:06:45.695Z,98581.28
2022-12-25T11:08:56.335Z,98580.22
2022-12-25T11:11:06.427Z,98575.28
2022-12-25T11:13:24.477Z,98565.88
2022-12-25T11:15:40.276Z,98565.81
2022-12-25T11:17:52.178Z,98566.81
2022-12-25T11:19:59.522Z,98564.53
2022-12-25T11:22:06.548Z,98551.94
2022-12-25T11:24:24.116Z,98547.34
2022-12-25T11:26:30.541Z,98534.44
2022-12-25T11:28:41.185Z,98521.72
2022-12-25T11:30:55.203Z,98527.94
2022-12-25T11:33:03.639Z,98524.31
2022-12-25T11:35:15.957Z,98520.75
2022-12-25T11:37:28.566Z,98518.66
2022-12-25T11:39:37.828Z,98518.78
2022-12-25T11:41:44.246Z,98521.97
2022-12-25T11:43:57.108Z,98518.28
2022-12-25T11:46:19.131Z,98515.34
2022-12-25T11:48:30.709Z,98513.00
2022-12-25T11:50:41.056Z,98507.31
2022-12-25T11:52:49.558Z,98501.97
2022-12-25T11:55:01.599Z,98498.66
2022-12-25T11:57:08.624Z,98488.59
2022-12-25T11:59:24.639Z,98480.06
2022-12-25T12:01:36.839Z,98485.09
2022-12-25T12:03:44.238Z,98481.28
2022-12-25T12:05:55.306Z,98487.69
2022-12-25T12:08:03.916Z,98486.69
2022-12-25T12:10:17.949Z,98493.69
2022-12-25T12:12:33.648Z,98495.31
2022-12-25T12:14:51.335Z,98496.09
2022-12-25T12:16:59.164Z,98491.31
2022-12-25T12:19:15.245Z,98483.81
2022-12-25T12:21:26.059Z,98479.50
2022-12-25T12:23:33.203Z,98487.53
2022-12-25T12:25:42.723Z,98481.53
2022-12-25T12:27:48.153Z,98468.03
2022-12-25T12:29:56.400Z,98456.53
2022-12-25T12:32:06.460Z,98461.25
2022-12-25T12:34:24.399Z,98462.47
2022-12-25T12:36:36.280Z,98448.31
2022-12-25T12:38:43.593Z,98444.16
2022-12-25T12:40:57.547Z,98457.06
2022-12-25T12:43:03.436Z,98447.00
2022-12-25T12:45:13.712Z,98453.56
2022-12-25T12:47:40.969Z,98447.53
2022-12-25T12:49:45.879Z,98430.00
2022-12-25T12:51:51.597Z,98437.56
2022-12-25T12:54:20.574Z,98431.53
2022-12-25T12:56:25.893Z,98424.22
2022-12-25T12:58:35.757Z,98415.09
2022-12-25T13:00:53.220Z,98417.50
2022-12-25T13:03:30.843Z,98404.91
2022-12-25T13:05:43.544Z,98387.38
2022-12-25T13:08:00.402Z,98393.50
2022-12-25T13:10:21.524Z,98390.72
2022-12-25T13:12:27.765Z,98373.25
2022-12-25T13:14:33.129Z,98382.50
2022-12-25T13:16:42.270Z,98393.41
2022-12-25T13:18:50.538Z,98398.25
2022-12-25T13:21:00.438Z,98406.56
2022-12-25T13:23:17.936Z,98401.41
2022-12-25T13:25:28.161Z,98401.34
2022-12-25T13:27:36.432Z,98404.06
2022-12-25T13:29:42.559Z,98394.81
2022-12-25T13:31:48.538Z,98397.41
2022-12-25T13:34:01.810Z,98393.94
2022-12-25T13:36:12.726Z,98393.41
2022-12-25T13:38:20.280Z,98399.13
2022-12-25T13:40:30.674Z,98401.84
2022-12-25T13:42:36.262Z,98401.94
2022-12-25T13:44:49.727Z,98398.75
2022-12-25T13:46:54.507Z,98404.00
2022-12-25T13:49:04.501Z,98402.47
2022-12-25T13:51:18.725Z,98400.31
2022-12-25T13:53:23.623Z,98396.28
2022-12-25T13:55:31.049Z,98405.03
2022-12-25T13:57:41.697Z,98395.72
2022-12-25T13:59:48.207Z,98390.97
2022-12-25T14:01:57.066Z,98391.38
2022-12-25T14:04:06.211Z,98384.81
2022-12-25T14:06:22.660Z,98385.47
2022-12-25T14:08:31.583Z,98392.34
2022-12-25T14:10:40.809Z,98387.31
2022-12-25T14:12:46.271Z,98384.66
2022-12-25T14:14:52.298Z,98378.78
2022-12-25T14:17:01.836Z,98386.16
2022-12-25T14:19:30.700Z,98380.16
2022-12-25T14:21:41.268Z,98376.66
2022-12-25T14:23:49.164Z,98379.31
2022-12-25T14:25:54.627Z,98379.16
2022-12-25T14:27:59.942Z,98374.00
2022-12-25T14:30:05.233Z,98381.44
2022-12-25T14:32:15.842Z,98371.41
2022-12-25T14:34:25.758Z,98371.53
2022-12-25T14:36:35.832Z,98368.47
2022-12-25T14:38:42.531Z,98375.34
2022-12-25T14:41:00.527Z,98380.41
2022-12-25T14:43:08.783Z,98378.78
2022-12-25T14:45:32.189Z,98387.25
2022-12-25T14:47:53.549Z,98389.81
2022-12-25T14:49:58.740Z,98393.91
2022-12-25T14:52:12.500Z,98396.50
2022-12-25T14:54:22.161Z,98400.69
2022-12-25T14:56:31.249Z,98397.41
2022-12-25T14:58:49.960Z,98390.63
2022-12-25T15:00:59.309Z,98385.72
2022-12-25T15:03:06.094Z,98380.66
2022-12-25T15:05:35.812Z,98383.28
2022-12-25T15:07:43.294Z,98381.63
2022-12-25T15:09:48.194Z,98383.06
2022-12-25T15:11:55.472Z,98388.97
2022-12-25T15:14:01.530Z,98381.56
2022-12-25T15:16:14.444Z,98374.00
2022-12-25T15:18:20.174Z,98384.13
2022-12-25T15:20:32.785Z,98381.69
2022-12-25T15:23:02.374Z,98380.75
2022-12-25T15:25:05.133Z,98374.88
2022-12-25T15:27:18.320Z,98378.34
2022-12-25T15:29:44.665Z,98379.25
2022-12-25T15:31:47.913Z,98375.97
2022-12-25T15:33:53.808Z,98366.78
2022-12-25T15:35:58.703Z,98367.69
2022-12-25T15:38:03.702Z,98364.25
2022-12-25T15:40:14.692Z,98365.19
2022-12-25T15:42:25.278Z,98368.72
2022-12-25T15:44:30.825Z,98368.84
2022-12-25T15:46:36.874Z,98361.19
2022-12-25T15:48:41.965Z,98364.56
2022-12-25T15:50:46.819Z,98368.84
2022-12-25T15:52:52.620Z,98366.50
2022-12-25T15:54:57.507Z,98371.53
2022-12-25T15:57:07.451Z,98373.25
2022-12-25T15:59:14.173Z,98371.44
2022-12-25T16:01:20.434Z,98357.88
2022-12-25T16:03:25.494Z,98363.81
2022-12-25T16:05:30.777Z,98369.44
2022-12-25T16:07:37.507Z,98381.13
2022-12-25T16:09:42.413Z,98377.75
2022-12-25T16:11:47.335Z,98371.06
2022-12-25T16:13:54.883Z,98370.28
2022-12-25T16:16:00.160Z,98362.66
2022-12-25T16:18:05.835Z,98364.25
2022-12-25T16:20:12.825Z,98365.91
2022-12-25T16:22:25.615Z,98354.16
2022-12-25T16:24:30.562Z,98370.00
2022-12-25T16:26:35.482Z,98367.41
2022-12-25T16:28:41.348Z,98375.81
2022-12-25T16:30:48.994Z,98362.25
2022-12-25T16:32:54.099Z,98355.69
2022-12-25T16:34:59.011Z,98347.34
2022-12-25T16:37:04.013Z,98348.81
2022-12-25T16:39:09.114Z,98351.41
2022-12-25T16:41:14.616Z,98349.00
2022-12-25T16:43:23.924Z,98358.28
2022-12-25T16:45:29.637Z,98360.72
2022-12-25T16:47:37.202Z,98352.38
2022-12-25T16:49:42.241Z,98348.28
2022-12-25T16:51:48.083Z,98359.06
2022-12-25T16:53:53.419Z,98349.13
2022-12-25T16:56:09.032Z,98344.25
2022-12-25T16:58:14.114Z,98347.53
2022-12-25T17:00:20.767Z,98344.13
2022-12-25T17:02:25.942Z,98347.63
2022-12-25T17:04:33.767Z,98346.19
2022-12-25T17:06:38.967Z,98351.94
2022-12-25T17:08:44.656Z,98342.59
2022-12-25T17:10:49.572Z,98350.06
2022-12-25T17:12:54.931Z,98342.63
2022-12-25T17:15:00.086Z,98337.75
2022-12-25T17:17:06.664Z,98339.22
2022-12-25T17:19:20.437Z,98334.91
2022-12-25T17:21:28.323Z,98330.69
2022-12-25T17:23:33.218Z,98342.50
2022-12-25T17:25:38.206Z,98345.09
2022-12-25T17:27:43.121Z,98350.16
2022-12-25T17:29:48.392Z,98355.19
2022-12-25T17:31:53.426Z,98344.25
2022-12-25T17:33:58.376Z,98351.16
2022-12-25T17:36:09.096Z,98344.63
2022-12-25T17:38:16.925Z,98354.59
2022-12-25T17:40:22.799Z,98356.25
2022-12-25T17:42:27.775Z,98371.13
2022-12-25T17:46:42.329Z,98361.81
2022-12-25T17:48:49.966Z,98357.81
2022-12-25T17:50:55.237Z,98351.13
2022-12-25T17:53:02.614Z,98354.56
2022-12-25T17:55:12.055Z,98364.66
2022-12-25T17:57:16.968Z,98370.41
2022-12-25T17:59:28.635Z,98368.72
2022-12-25T18:01:33.623Z,98366.09
2022-12-25T18:03:39.342Z,98367.69
2022-12-25T18:05:44.739Z,98365.91
2022-12-25T18:07:49.670Z,98366.03
2022-12-25T18:09:55.405Z,98364.25
2022-12-25T18:12:02.966Z,98367.69
2022-12-25T18:14:10.590Z,98361.00
2022-12-25T18:16:16.537Z,98358.56
2022-12-25T18:18:21.507Z,98366.06
2022-12-25T18:20:26.836Z,98358.53
2022-12-25T18:22:32.093Z,98358.69
2022-12-25T18:24:37.467Z,98347.03
2022-12-25T18:26:42.540Z,98338.56
2022-12-25T18:28:51.120Z,98336.13
2022-12-25T18:30:56.528Z,98342.75
2022-12-25T18:33:01.823Z,98349.56
2022-12-25T18:35:08.718Z,98337.19
2022-12-25T18:37:14.005Z,98333.22
2022-12-25T18:39:18.933Z,98338.41
2022-12-25T18:41:24.686Z,98343.66
2022-12-25T18:43:54.323Z,98338.81
2022-12-25T18:46:03.239Z,98337.25
2022-12-25T18:48:08.946Z,98328.84
2022-12-25T18:50:15.027Z,98334.75
2022-12-25T18:52:49.406Z,98333.06
2022-12-25T18:54:45.348Z,98332.06
2022-12-25T18:56:53.358Z,98327.69
2022-12-25T18:58:58.739Z,98320.94
2022-12-25T19:01:14.649Z,98332.56
2022-12-25T19:03:19.823Z,98338.56
2022-12-25T19:05:24.836Z,98343.59
2022-12-25T19:07:33.405Z,98335.25
2022-12-25T19:09:38.876Z,98341.63
2022-12-25T19:11:47.023Z,98329.81
2022-12-25T19:13:52.516Z,98326.44
2022-12-25T19:16:01.648Z,98324.78
2022-12-25T19:18:09.281Z,98328.28
2022-12-25T19:20:15.158Z,98329.22
2022-12-25T19:22:20.321Z,98333.31
2022-12-25T19:24:26.868Z,98343.47
2022-12-25T19:26:32.064Z,98342.69
2022-12-25T19:28:37.448Z,98341.63
2022-12-25T19:30:42.392Z,98341.69
2022-12-25T19:32:47.287Z,98341.81
2022-12-25T19:34:54.788Z,98347.72
2022-12-25T19:37:00.187Z,98346.03
2022-12-25T19:39:05.520Z,98331.75
2022-12-25T19:41:11.519Z,98331.75
2022-12-25T19:43:16.400Z,98321.59
2022-12-25T19:45:21.584Z,98321.59
2022-12-25T19:47:27.207Z,98320.84
2022-12-25T19:49:32.476Z,98311.75
2022-12-25T19:51:42.520Z,98315.97
2022-12-25T19:53:48.086Z,98314.50
2022-12-25T19:55:54.024Z,98306.91
2022-12-25T19:57:59.661Z,98313.75
2022-12-25T20:00:04.687Z,98312.31
2022-12-25T20:02:18.515Z,98315.06
2022-12-25T20:04:23.898Z,98314.16
2022-12-25T20:06:32.783Z,98314.34
2022-12-25T20:08:40.287Z,98314.34
2022-12-25T20:10:46.423Z,98311.13
2022-12-25T20:12:51.592Z,98323.75
2022-12-25T20:14:57.323Z,98325.63
2022-12-25T20:17:02.328Z,98324.16
2022-12-25T20:19:08.432Z,98327.44
2022-12-25T20:21:16.658Z,98320.09
2022-12-25T20:23:21.564Z,98321.09
2022-12-25T20:25:30.516Z,98321.91
2022-12-25T20:27:35.405Z,98317.81
2022-12-25T20:29:40.629Z,98308.66
2022-12-25T20:31:46.168Z,98298.53
2022-12-25T20:33:51.505Z,98313.63
2022-12-25T20:36:00.011Z,98321.16
2022-12-25T20:38:05.088Z,98325.47
2022-12-25T20:40:13.052Z,98316.34
2022-12-25T20:42:20.596Z,98310.59
2022-12-25T20:44:25.565Z,98306.56
2022-12-25T20:46:30.879Z,98313.47
2022-12-25T20:48:36.224Z,98312.72
2022-12-25T20:50:41.828Z,98306.13
2022-12-25T20:52:46.904Z,98302.00
2022-12-25T20:54:52.219Z,98310.34
2022-12-25T20:56:57.202Z,98306.34
2022-12-25T20:59:04.948Z,98306.34
2022-12-25T21:01:14.085Z,98288.13
2022-12-25T21:03:19.410Z,98311.69
2022-12-25T21:05:24.594Z,98320.88
2022-12-25T21:07:29.520Z,98338.34
2022-12-25T21:09:35.602Z,98331.84
2022-12-25T21:11:40.565Z,98337.00
2022-12-25T21:13:47.967Z,98326.13
2022-12-25T21:15:56.663Z,98343.78
2022-12-25T21:18:02.956Z,98331.25
2022-12-25T21:20:10.494Z,98343.69
2022-12-25T21:22:17.066Z,98353.72
2022-12-25T21:24:23.323Z,98359.09
2022-12-25T21:26:31.809Z,98350.16
2022-12-25T21:28:37.499Z,98337.75
2022-12-25T21:30:43.016Z,98352.19
2022-12-25T21:33:03.449Z,98334.63
2022-12-25T21:35:10.009Z,98336.13
2022-12-25T21:37:15.666Z,98349.25
2022-12-25T21:39:20.580Z,98354.97
2022-12-25T21:43:35.283Z,98347.75
2022-12-25T21:45:40.200Z,98366.16
2022-12-25T21:48:01.643Z,98356.34
2022-12-25T21:50:25.974Z,98354.84
2022-12-25T21:52:30.920Z,98361.59
2022-12-25T21:54:35.970Z,98362.53
2022-12-25T21:56:45.311Z,98365.03
2022-12-25T21:58:50.563Z,98346.63
2022-12-25T22:00:55.899Z,98350.00
2022-12-25T22:03:01.098Z,98344.97
2022-12-25T22:05:06.501Z,98342.38
2022-12-25T22:07:19.901Z,98341.44
2022-12-25T22:09:25.753Z,98336.66
2022-12-25T22:11:43.709Z,98336.66
2022-12-25T22:14:01.431Z,98343.44
2022-12-25T22:16:19.744Z,98350.22
2022-12-25T22:18:37.268Z,98347.63
2022-12-25T22:20:42.228Z,98340.00
2022-12-25T22:22:50.735Z,98360.88
2022-12-25T22:24:59.205Z,98364.06
2022-12-25T22:27:04.617Z,98354.63
2022-12-25T22:29:10.296Z,98364.06
2022-12-25T22:31:15.704Z,98368.78
2022-12-25T22:33:22.375Z,98361.63
2022-12-25T22:35:27.819Z,98358.72
2022-12-25T22:37:33.221Z,98358.44
2022-12-25T22:39:41.040Z,98368.94
2022-12-25T22:41:46.620Z,98380.56
2022-12-25T22:44:16.439Z,98377.75
2022-12-25T22:46:16.479Z,98378.47
2022-12-25T22:48:21.447Z,98372.25
2022-12-25T22:50:27.852Z,98372.72
2022-12-25T22:52:33.717Z,98362.41
2022-12-25T22:54:41.777Z,98370.72
2022-12-25T22:56:49.073Z,98358.84
2022-12-25T22:58:54.377Z,98354.28
2022-12-25T23:00:59.293Z,98366.69
2022-12-25T23:03:04.593Z,98360.09
2022-12-25T23:05:11.610Z,98354.78
2022-12-25T23:07:16.927Z,98369.88
2022-12-25T23:09:27.770Z,98368.22
2022-12-25T23:11:36.134Z,98365.69
2022-12-25T23:13:53.873Z,98369.19
2022-12-25T23:16:00.040Z,98367.25
2022-12-25T23:18:20.283Z,98367.75
2022-12-25T23:20:39.115Z,98374.53
2022-12-25T23:22:57.749Z,98371.25
2022-12-25T23:25:15.422Z,98370.53
2022-12-25T23:27:24.281Z,98362.13
2022-12-25T23:29:35.846Z,98367.75
2022-12-25T23:31:44.055Z,98366.09
2022-12-25T23:33:49.045Z,98349.56
2022-12-25T23:35:54.782Z,98357.81
2022-12-25T23:37:59.802Z,98357.00
2022-12-25T23:40:05.074Z,98364.38
2022-12-25T23:42:10.748Z,98366.94
2022-12-25T23:44:18.931Z,98369.41
2022-12-25T23:46:24.824Z,98360.13
2022-12-25T23:48:29.832Z,98368.53
2022-12-25T23:50:36.216Z,98362.72
2022-12-25T23:52:44.310Z,98376.16
2022-12-25T23:54:49.569Z,98376.16
2022-12-25T23:56:55.161Z,98372.78
2022-12-25T23:59:00.302Z,98364.47
